Quinsam — VY6800 — position and weather

sailwx.info

Track history (hours):
 
Tides and Currents Weather Stations Pressure Air Temp Water Temp Dewpoint Dewpoint Depression Visibility Wind Speed Wind Dir Waves Ship Positions

Quinsam

Last reported at 2015-Apr-01 20:28 UTC. Time now 2015-Apr-01 21:23 UTC.
Position N 49°11' W 123°52'.

Length 88 m; draft 1.5 m.

Type: Ship. MMSI: 316001266.

Date/timePositionNaut miles runAvg speedWind from/ knotsBaromVisibWave heightAir tempDewpointWater temp
2015-Apr-01 20:28N 49°11' W 123°52'0 0.4
2015-Apr-01 19:23N 49°11' W 123°52'3 3.1
2015-Apr-01 18:33N 49°10' W 123°55'0 0.3
2015-Apr-01 17:24N 49°10' W 123°56'1 0.7
2015-Apr-01 16:33N 49°10' W 123°55'2 2.1
2015-Apr-01 15:31N 49°11' W 123°52'0 0.2
2015-Apr-01 14:31N 49°11' W 123°52'2 2.3
2015-Apr-01 13:33N 49°10' W 123°55'2 0.4
2015-Apr-01 08:06N 49°11' W 123°52'0 0.0
2015-Apr-01 06:23N 49°11' W 123°52'0 0.1
2015-Apr-01 05:33N 49°11' W 123°52'0 0.0
2015-Apr-01 04:31N 49°11' W 123°52'2 1.9
2015-Apr-01 03:33N 49°10' W 123°54'1 0.7
2015-Apr-01 02:33N 49°11' W 123°53'1 0.8
2015-Apr-01 01:27N 49°11' W 123°52'0 0.3
2015-Apr-01 00:24N 49°11' W 123°52'1 1.7
2015-Mar-31 23:33N 49°10' W 123°54'1 1.4
2015-Mar-31 22:29N 49°10' W 123°56'3 2.8
2015-Mar-31 21:26N 49°11' W 123°52'3 3.2
2015-Mar-31 20:32N 49°10' W 123°56'0 0.0
2015-Mar-31 19:33N 49°10' W 123°56'1 1.4
2015-Mar-31 18:33N 49°10' W 123°54'1 1.4
2015-Mar-31 17:33N 49°10' W 123°56'0 0.4
2015-Mar-31 16:33N 49°10' W 123°55'2 2.2
2015-Mar-31 15:31N 49°11' W 123°52'0 0.2
2015-Mar-31 14:33N 49°11' W 123°52'0 0.0
2015-Mar-31 13:33N 49°11' W 123°52'0 0.5
2015-Mar-31 12:33N 49°11' W 123°52'0 0.4
2015-Mar-31 11:20N 49°11' W 123°52'0 0.0
2015-Mar-31 08:17N 49°11' W 123°52'0 0.0
2015-Mar-31 07:32N 49°11' W 123°52'0 0.0
2015-Mar-31 06:32N 49°11' W 123°52'0 0.0
2015-Mar-31 05:33N 49°11' W 123°52'0 0.0
2015-Mar-31 04:29N 49°11' W 123°52'1 1.5
2015-Mar-31 03:33N 49°10' W 123°54'0 0.5
2015-Mar-31 02:33N 49°11' W 123°53'1 0.9
2015-Mar-31 01:32N 49°11' W 123°52'0 0.0
2015-Mar-31 00:32N 49°11' W 123°52'1 1.1
2015-Mar-30 23:32N 49°10' W 123°53'2 1.7
2015-Mar-30 22:29N 49°10' W 123°56'2 1.7
2015-Mar-30 21:06N 49°11' W 123°52'2 4.5
2015-Mar-30 20:33N 49°10' W 123°56'0 0.0
2015-Mar-30 19:27N 49°10' W 123°56'2 1.8
2015-Mar-30 18:33N 49°10' W 123°54'2 1.5
2015-Mar-30 17:29N 49°10' W 123°56'1 0.6
2015-Mar-30 16:34N 49°10' W 123°55'2 1.8
2015-Mar-30 15:32N 49°11' W 123°52'1 0.5
2015-Mar-30 14:32N 49°11' W 123°52'0 0.0
2015-Mar-30 13:30N 49°11' W 123°52'0 0.1
2015-Mar-30 12:32N 49°11' W 123°52'0 0.0
2015-Mar-30 06:24N 49°11' W 123°52'2 2.7
2015-Mar-30 05:34N 49°10' W 123°55'2 2.1
2015-Mar-30 04:30N 49°11' W 123°52'1 1.6
2015-Mar-30 03:33N 49°10' W 123°54'0 0.3
2015-Mar-30 02:33N 49°11' W 123°53'1 0.8
2015-Mar-30 01:29N 49°11' W 123°52'0 0.2
2015-Mar-30 00:21N 49°11' W 123°52'1 1.0
2015-Mar-29 23:33N 49°10' W 123°53'2 1.9
2015-Mar-29 22:30N 49°10' W 123°56'1 0.6
2015-Mar-29 20:33N 49°10' W 123°54'2 1.6
2015-Mar-29 19:33N 49°11' W 123°52'0 0.1
2015-Mar-29 18:27N 49°11' W 123°52'3 2.4
2015-Mar-29 17:13N 49°10' W 123°56'2 3.3
2015-Mar-29 16:33N 49°11' W 123°53'1 0.7
2015-Mar-29 15:31N 49°11' W 123°52'3 3.0
2015-Mar-29 14:32N 49°10' W 123°56'2 2.5
2015-Mar-29 13:33N 49°11' W 123°52'1 0.1
2015-Mar-29 08:22N 49°11' W 123°52'0 0.2
2015-Mar-29 06:22N 49°11' W 123°52'0 0.2
2015-Mar-29 05:23N 49°11' W 123°53'1 0.3
2015-Mar-29 03:33N 49°11' W 123°53'0 0.2
2015-Mar-29 02:33N 49°11' W 123°53'0 0.0
2015-Mar-29 01:23N 49°11' W 123°53'1 1.2
2015-Mar-29 00:28N 49°11' W 123°52'1 1.0
2015-Mar-28 23:33N 49°11' W 123°53'2 2.0
2015-Mar-28 22:33N 49°10' W 123°56'1 0.6
2015-Mar-28 20:33N 49°10' W 123°54'1 1.1
2015-Mar-28 19:33N 49°11' W 123°53'1 0.7
2015-Mar-28 18:29N 49°11' W 123°52'3 3.1
2015-Mar-28 17:33N 49°10' W 123°56'3 2.6
2015-Mar-28 16:33N 49°11' W 123°52'0 0.3
2015-Mar-28 15:29N 49°11' W 123°52'0 0.0
2015-Mar-28 14:29N 49°11' W 123°52'1 0.6
2015-Mar-28 13:33N 49°11' W 123°52'1 0.5
2015-Mar-28 12:25N 49°11' W 123°52'0 0.0
2015-Mar-28 11:13N 49°11' W 123°52'0 0.0
2015-Mar-28 06:28N 49°11' W 123°52'0 0.0
2015-Mar-28 05:32N 49°11' W 123°52'0 0.0
2015-Mar-28 04:31N 49°11' W 123°52'2 1.6
2015-Mar-28 03:33N 49°10' W 123°54'0 0.4
2015-Mar-28 02:33N 49°10' W 123°53'1 1.1
2015-Mar-28 01:33N 49°11' W 123°52'0 0.0
2015-Mar-28 00:33N 49°11' W 123°52'1 1.4
2015-Mar-27 23:33N 49°10' W 123°54'1 1.5
2015-Mar-27 22:32N 49°10' W 123°56'3 2.3
2015-Mar-27 21:15N 49°11' W 123°52'3 4.0
2015-Mar-27 20:33N 49°10' W 123°56'0 0.1
2015-Mar-27 19:32N 49°10' W 123°56'2 1.7
2015-Mar-27 18:33N 49°11' W 123°53'2 1.6
2015-Mar-27 17:28N 49°10' W 123°56'0 0.2
2015-Mar-27 16:33N 49°10' W 123°56'2 1.7
2015-Mar-27 15:32N 49°11' W 123°53'1 1.0
2015-Mar-27 14:30N 49°11' W 123°52'1 0.6
2015-Mar-27 13:33N 49°11' W 123°52'0 0.2
2015-Mar-27 12:32N 49°11' W 123°52'0 0.1
2015-Mar-27 06:27N 49°11' W 123°52'0 0.0
2015-Mar-27 05:33N 49°11' W 123°52'0 0.0
2015-Mar-27 04:26N 49°11' W 123°52'1 1.4
2015-Mar-27 03:33N 49°10' W 123°53'0 0.2
2015-Mar-27 02:33N 49°10' W 123°54'1 1.3
2015-Mar-27 01:33N 49°11' W 123°52'0 0.2
2015-Mar-27 00:22N 49°11' W 123°52'1 0.6
2015-Mar-26 23:33N 49°11' W 123°53'2 2.0
2015-Mar-26 22:28N 49°10' W 123°56'3 2.4
2015-Mar-26 21:15N 49°11' W 123°52'3 3.7
2015-Mar-26 20:33N 49°10' W 123°55'0 0.3
2015-Mar-26 19:30N 49°10' W 123°56'2 1.6
2015-Mar-26 18:33N 49°10' W 123°54'2 1.5
2015-Mar-26 17:33N 49°10' W 123°56'0 0.0
2015-Mar-26 16:33N 49°10' W 123°56'2 2.0
2015-Mar-26 15:33N 49°11' W 123°53'1 0.7
2015-Mar-26 14:25N 49°11' W 123°52'0 0.5
2015-Mar-26 13:33N 49°11' W 123°52'0 0.1
2015-Mar-26 12:33N 49°11' W 123°52'1 0.2
2015-Mar-26 10:21N 49°11' W 123°52'1 0.1
2015-Mar-26 06:25N 49°11' W 123°52'1 0.3
2015-Mar-26 04:32N 49°11' W 123°52'2 1.7
2015-Mar-26 03:33N 49°10' W 123°54'0 0.1
2015-Mar-26 02:34N 49°10' W 123°54'1 1.4
2015-Mar-26 01:31N 49°11' W 123°52'0 0.1
2015-Mar-26 00:31N 49°11' W 123°52'1 1.1
2015-Mar-25 23:33N 49°11' W 123°53'2 1.7
2015-Mar-25 22:29N 49°10' W 123°56'2 1.6
2015-Mar-25 21:08N 49°11' W 123°53'2 3.6
2015-Mar-25 20:33N 49°10' W 123°56'0 0.1
2015-Mar-25 19:26N 49°10' W 123°56'2 2.1
2015-Mar-25 18:33N 49°11' W 123°53'2 1.8
2015-Mar-25 17:33N 49°10' W 123°56'0 0.0
2015-Mar-25 16:28N 49°10' W 123°56'2 2.4
2015-Mar-25 15:33N 49°11' W 123°53'0 0.1
2015-Mar-25 14:22N 49°11' W 123°52'1 0.6
2015-Mar-25 13:23N 49°11' W 123°52'0 0.0
2015-Mar-25 12:10N 49°11' W 123°52'0 0.0
2015-Mar-25 10:03N 49°11' W 123°52'0 0.0
2015-Mar-25 06:28N 49°11' W 123°52'0 0.0
2015-Mar-25 05:33N 49°11' W 123°52'0 0.0
2015-Mar-25 04:33N 49°11' W 123°52'1 1.2
2015-Mar-25 03:33N 49°11' W 123°53'0 0.1
2015-Mar-25 02:33N 49°10' W 123°54'1 1.3
2015-Mar-25 01:33N 49°11' W 123°52'0 0.3
2015-Mar-25 00:19N 49°11' W 123°52'1 1.3
2015-Mar-24 23:33N 49°10' W 123°54'2 1.5
2015-Mar-24 22:29N 49°10' W 123°56'2 1.8
2015-Mar-24 21:07N 49°11' W 123°52'2 4.3
2015-Mar-24 20:33N 49°10' W 123°56'0 0.0
2015-Mar-24 19:23N 49°10' W 123°56'2 1.8
2015-Mar-24 18:31N 49°10' W 123°54'2 1.6
2015-Mar-24 17:32N 49°10' W 123°56'0 0.0
2015-Mar-24 16:21N 49°10' W 123°56'2 2.0
2015-Mar-24 15:33N 49°10' W 123°53'1 1.3
2015-Mar-24 14:33N 49°11' W 123°52'0 0.0
2015-Mar-24 13:31N 49°11' W 123°52'1 0.5
2015-Mar-24 12:34N 49°11' W 123°52'0 0.0
2015-Mar-24 06:18N 49°11' W 123°53'0 0.5
2015-Mar-24 05:24N 49°11' W 123°52'0 0.4
2015-Mar-24 04:33N 49°11' W 123°52'1 1.3
2015-Mar-24 03:33N 49°11' W 123°54'0 0.4
2015-Mar-24 02:33N 49°10' W 123°54'1 1.0
2015-Mar-24 01:26N 49°11' W 123°53'0 0.1
2015-Mar-24 00:18N 49°11' W 123°52'0 0.2
2015-Mar-23 23:33N 49°11' W 123°53'2 2.1
2015-Mar-23 22:29N 49°10' W 123°56'3 2.3
2015-Mar-23 21:14N 49°11' W 123°52'3 4.2
2015-Mar-23 20:33N 49°10' W 123°56'0 0.0
2015-Mar-23 19:33N 49°10' W 123°56'2 1.7
2015-Mar-23 18:33N 49°10' W 123°53'2 1.6
2015-Mar-23 17:32N 49°10' W 123°56'0 0.1
2015-Mar-23 16:33N 49°10' W 123°56'2 2.1
2015-Mar-23 15:31N 49°11' W 123°53'1 0.7
2015-Mar-23 14:32N 49°11' W 123°52'0 0.3
2015-Mar-23 13:33N 49°11' W 123°52'0 0.3
2015-Mar-23 12:33N 49°11' W 123°52'1 0.2
2015-Mar-23 09:33N 49°11' W 123°52'0 0.0
2015-Mar-23 08:20N 49°11' W 123°52'2 0.9
2015-Mar-23 05:34N 49°10' W 123°55'2 2.3
2015-Mar-23 04:31N 49°11' W 123°52'2 1.9
2015-Mar-23 03:33N 49°10' W 123°54'1 0.6
2015-Mar-23 02:32N 49°11' W 123°53'1 0.6
2015-Mar-23 01:28N 49°11' W 123°52'0 0.4
2015-Mar-23 00:21N 49°11' W 123°52'1 1.2
2015-Mar-22 23:33N 49°10' W 123°53'2 1.7
2015-Mar-22 22:31N 49°10' W 123°56'3 2.2
2015-Mar-22 21:10N 49°11' W 123°52'2 3.3
2015-Mar-22 20:33N 49°10' W 123°55'  
Track history (hours):
 
Tides and Currents Weather Stations Pressure Air Temp Water Temp Dewpoint Dewpoint Depression Visibility Wind Speed Wind Dir Waves Ship Positions

Quinsam

Last reported at 2015-Apr-01 20:28 UTC. Time now 2015-Apr-01 21:23 UTC.
Position N 49°11' W 123°52'.

Length 88 m; draft 1.5 m.

Type: Ship. MMSI: 316001266.

Date/timePositionNaut miles runAvg speedWind from/ knotsBaromVisibWave heightAir tempDewpointWater temp
2015-Apr-01 20:28N 49°11' W 123°52'0 0.4
2015-Apr-01 19:23N 49°11' W 123°52'3 3.1
2015-Apr-01 18:33N 49°10' W 123°55'0 0.3
2015-Apr-01 17:24N 49°10' W 123°56'1 0.7
2015-Apr-01 16:33N 49°10' W 123°55'2 2.1
2015-Apr-01 15:31N 49°11' W 123°52'0 0.2
2015-Apr-01 14:31N 49°11' W 123°52'2 2.3
2015-Apr-01 13:33N 49°10' W 123°55'2 0.4
2015-Apr-01 08:06N 49°11' W 123°52'0 0.0
2015-Apr-01 06:23N 49°11' W 123°52'0 0.1
2015-Apr-01 05:33N 49°11' W 123°52'0 0.0
2015-Apr-01 04:31N 49°11' W 123°52'2 1.9
2015-Apr-01 03:33N 49°10' W 123°54'1 0.7
2015-Apr-01 02:33N 49°11' W 123°53'1 0.8
2015-Apr-01 01:27N 49°11' W 123°52'0 0.3
2015-Apr-01 00:24N 49°11' W 123°52'1 1.7
2015-Mar-31 23:33N 49°10' W 123°54'1 1.4
2015-Mar-31 22:29N 49°10' W 123°56'3 2.8
2015-Mar-31 21:26N 49°11' W 123°52'3 3.2
2015-Mar-31 20:32N 49°10' W 123°56'0 0.0
2015-Mar-31 19:33N 49°10' W 123°56'1 1.4
2015-Mar-31 18:33N 49°10' W 123°54'1 1.4
2015-Mar-31 17:33N 49°10' W 123°56'0 0.4
2015-Mar-31 16:33N 49°10' W 123°55'2 2.2
2015-Mar-31 15:31N 49°11' W 123°52'0 0.2
2015-Mar-31 14:33N 49°11' W 123°52'0 0.0
2015-Mar-31 13:33N 49°11' W 123°52'0 0.5
2015-Mar-31 12:33N 49°11' W 123°52'0 0.4
2015-Mar-31 11:20N 49°11' W 123°52'0 0.0
2015-Mar-31 08:17N 49°11' W 123°52'0 0.0
2015-Mar-31 07:32N 49°11' W 123°52'0 0.0
2015-Mar-31 06:32N 49°11' W 123°52'0 0.0
2015-Mar-31 05:33N 49°11' W 123°52'0 0.0
2015-Mar-31 04:29N 49°11' W 123°52'1 1.5
2015-Mar-31 03:33N 49°10' W 123°54'0 0.5
2015-Mar-31 02:33N 49°11' W 123°53'1 0.9
2015-Mar-31 01:32N 49°11' W 123°52'0 0.0
2015-Mar-31 00:32N 49°11' W 123°52'1 1.1
2015-Mar-30 23:32N 49°10' W 123°53'2 1.7
2015-Mar-30 22:29N 49°10' W 123°56'2 1.7
2015-Mar-30 21:06N 49°11' W 123°52'2 4.5
2015-Mar-30 20:33N 49°10' W 123°56'0 0.0
2015-Mar-30 19:27N 49°10' W 123°56'2 1.8
2015-Mar-30 18:33N 49°10' W 123°54'2 1.5
2015-Mar-30 17:29N 49°10' W 123°56'1 0.6
2015-Mar-30 16:34N 49°10' W 123°55'2 1.8
2015-Mar-30 15:32N 49°11' W 123°52'1 0.5
2015-Mar-30 14:32N 49°11' W 123°52'0 0.0
2015-Mar-30 13:30N 49°11' W 123°52'0 0.1
2015-Mar-30 12:32N 49°11' W 123°52'0 0.0
2015-Mar-30 06:24N 49°11' W 123°52'2 2.7
2015-Mar-30 05:34N 49°10' W 123°55'2 2.1
2015-Mar-30 04:30N 49°11' W 123°52'1 1.6
2015-Mar-30 03:33N 49°10' W 123°54'0 0.3
2015-Mar-30 02:33N 49°11' W 123°53'1 0.8
2015-Mar-30 01:29N 49°11' W 123°52'0 0.2
2015-Mar-30 00:21N 49°11' W 123°52'1 1.0
2015-Mar-29 23:33N 49°10' W 123°53'2 1.9
2015-Mar-29 22:30N 49°10' W 123°56'1 0.6
2015-Mar-29 20:33N 49°10' W 123°54'2 1.6
2015-Mar-29 19:33N 49°11' W 123°52'0 0.1
2015-Mar-29 18:27N 49°11' W 123°52'3 2.4
2015-Mar-29 17:13N 49°10' W 123°56'2 3.3
2015-Mar-29 16:33N 49°11' W 123°53'1 0.7
2015-Mar-29 15:31N 49°11' W 123°52'3 3.0
2015-Mar-29 14:32N 49°10' W 123°56'2 2.5
2015-Mar-29 13:33N 49°11' W 123°52'1 0.1
2015-Mar-29 08:22N 49°11' W 123°52'0 0.2
2015-Mar-29 06:22N 49°11' W 123°52'0 0.2
2015-Mar-29 05:23N 49°11' W 123°53'1 0.3
2015-Mar-29 03:33N 49°11' W 123°53'0 0.2
2015-Mar-29 02:33N 49°11' W 123°53'0 0.0
2015-Mar-29 01:23N 49°11' W 123°53'1 1.2
2015-Mar-29 00:28N 49°11' W 123°52'1 1.0
2015-Mar-28 23:33N 49°11' W 123°53'2 2.0
2015-Mar-28 22:33N 49°10' W 123°56'1 0.6
2015-Mar-28 20:33N 49°10' W 123°54'1 1.1
2015-Mar-28 19:33N 49°11' W 123°53'1 0.7
2015-Mar-28 18:29N 49°11' W 123°52'3 3.1
2015-Mar-28 17:33N 49°10' W 123°56'3 2.6
2015-Mar-28 16:33N 49°11' W 123°52'0 0.3
2015-Mar-28 15:29N 49°11' W 123°52'0 0.0
2015-Mar-28 14:29N 49°11' W 123°52'1 0.6
2015-Mar-28 13:33N 49°11' W 123°52'1 0.5
2015-Mar-28 12:25N 49°11' W 123°52'0 0.0
2015-Mar-28 11:13N 49°11' W 123°52'0 0.0
2015-Mar-28 06:28N 49°11' W 123°52'0 0.0
2015-Mar-28 05:32N 49°11' W 123°52'0 0.0
2015-Mar-28 04:31N 49°11' W 123°52'2 1.6
2015-Mar-28 03:33N 49°10' W 123°54'0 0.4
2015-Mar-28 02:33N 49°10' W 123°53'1 1.1
2015-Mar-28 01:33N 49°11' W 123°52'0 0.0
2015-Mar-28 00:33N 49°11' W 123°52'1 1.4
2015-Mar-27 23:33N 49°10' W 123°54'1 1.5
2015-Mar-27 22:32N 49°10' W 123°56'3 2.3
2015-Mar-27 21:15N 49°11' W 123°52'3 4.0
2015-Mar-27 20:33N 49°10' W 123°56'0 0.1
2015-Mar-27 19:32N 49°10' W 123°56'2 1.7
2015-Mar-27 18:33N 49°11' W 123°53'2 1.6
2015-Mar-27 17:28N 49°10' W 123°56'0 0.2
2015-Mar-27 16:33N 49°10' W 123°56'2 1.7
2015-Mar-27 15:32N 49°11' W 123°53'1 1.0
2015-Mar-27 14:30N 49°11' W 123°52'1 0.6
2015-Mar-27 13:33N 49°11' W 123°52'0 0.2
2015-Mar-27 12:32N 49°11' W 123°52'0 0.1
2015-Mar-27 06:27N 49°11' W 123°52'0 0.0
2015-Mar-27 05:33N 49°11' W 123°52'0 0.0
2015-Mar-27 04:26N 49°11' W 123°52'1 1.4
2015-Mar-27 03:33N 49°10' W 123°53'0 0.2
2015-Mar-27 02:33N 49°10' W 123°54'1 1.3
2015-Mar-27 01:33N 49°11' W 123°52'0 0.2
2015-Mar-27 00:22N 49°11' W 123°52'1 0.6
2015-Mar-26 23:33N 49°11' W 123°53'2 2.0
2015-Mar-26 22:28N 49°10' W 123°56'3 2.4
2015-Mar-26 21:15N 49°11' W 123°52'3 3.7
2015-Mar-26 20:33N 49°10' W 123°55'0 0.3
2015-Mar-26 19:30N 49°10' W 123°56'2 1.6
2015-Mar-26 18:33N 49°10' W 123°54'2 1.5
2015-Mar-26 17:33N 49°10' W 123°56'0 0.0
2015-Mar-26 16:33N 49°10' W 123°56'2 2.0
2015-Mar-26 15:33N 49°11' W 123°53'1 0.7
2015-Mar-26 14:25N 49°11' W 123°52'0 0.5
2015-Mar-26 13:33N 49°11' W 123°52'0 0.1
2015-Mar-26 12:33N 49°11' W 123°52'1 0.2
2015-Mar-26 10:21N 49°11' W 123°52'1 0.1
2015-Mar-26 06:25N 49°11' W 123°52'1 0.3
2015-Mar-26 04:32N 49°11' W 123°52'2 1.7
2015-Mar-26 03:33N 49°10' W 123°54'0 0.1
2015-Mar-26 02:34N 49°10' W 123°54'1 1.4
2015-Mar-26 01:31N 49°11' W 123°52'0 0.1
2015-Mar-26 00:31N 49°11' W 123°52'1 1.1
2015-Mar-25 23:33N 49°11' W 123°53'2 1.7
2015-Mar-25 22:29N 49°10' W 123°56'2 1.6
2015-Mar-25 21:08N 49°11' W 123°53'2 3.6
2015-Mar-25 20:33N 49°10' W 123°56'0 0.1
2015-Mar-25 19:26N 49°10' W 123°56'2 2.1
2015-Mar-25 18:33N 49°11' W 123°53'2 1.8
2015-Mar-25 17:33N 49°10' W 123°56'0 0.0
2015-Mar-25 16:28N 49°10' W 123°56'2 2.4
2015-Mar-25 15:33N 49°11' W 123°53'0 0.1
2015-Mar-25 14:22N 49°11' W 123°52'1 0.6
2015-Mar-25 13:23N 49°11' W 123°52'0 0.0
2015-Mar-25 12:10N 49°11' W 123°52'0 0.0
2015-Mar-25 10:03N 49°11' W 123°52'0 0.0
2015-Mar-25 06:28N 49°11' W 123°52'0 0.0
2015-Mar-25 05:33N 49°11' W 123°52'0 0.0
2015-Mar-25 04:33N 49°11' W 123°52'1 1.2
2015-Mar-25 03:33N 49°11' W 123°53'0 0.1
2015-Mar-25 02:33N 49°10' W 123°54'1 1.3
2015-Mar-25 01:33N 49°11' W 123°52'0 0.3
2015-Mar-25 00:19N 49°11' W 123°52'1 1.3
2015-Mar-24 23:33N 49°10' W 123°54'2 1.5
2015-Mar-24 22:29N 49°10' W 123°56'2 1.8
2015-Mar-24 21:07N 49°11' W 123°52'2 4.3
2015-Mar-24 20:33N 49°10' W 123°56'0 0.0
2015-Mar-24 19:23N 49°10' W 123°56'2 1.8
2015-Mar-24 18:31N 49°10' W 123°54'2 1.6
2015-Mar-24 17:32N 49°10' W 123°56'0 0.0
2015-Mar-24 16:21N 49°10' W 123°56'2 2.0
2015-Mar-24 15:33N 49°10' W 123°53'1 1.3
2015-Mar-24 14:33N 49°11' W 123°52'0 0.0
2015-Mar-24 13:31N 49°11' W 123°52'1 0.5
2015-Mar-24 12:34N 49°11' W 123°52'0 0.0
2015-Mar-24 06:18N 49°11' W 123°53'0 0.5
2015-Mar-24 05:24N 49°11' W 123°52'0 0.4
2015-Mar-24 04:33N 49°11' W 123°52'1 1.3
2015-Mar-24 03:33N 49°11' W 123°54'0 0.4
2015-Mar-24 02:33N 49°10' W 123°54'1 1.0
2015-Mar-24 01:26N 49°11' W 123°53'0 0.1
2015-Mar-24 00:18N 49°11' W 123°52'0 0.2
2015-Mar-23 23:33N 49°11' W 123°53'2 2.1
2015-Mar-23 22:29N 49°10' W 123°56'3 2.3
2015-Mar-23 21:14N 49°11' W 123°52'3 4.2
2015-Mar-23 20:33N 49°10' W 123°56'0 0.0
2015-Mar-23 19:33N 49°10' W 123°56'2 1.7
2015-Mar-23 18:33N 49°10' W 123°53'2 1.6
2015-Mar-23 17:32N 49°10' W 123°56'0 0.1
2015-Mar-23 16:33N 49°10' W 123°56'2 2.1
2015-Mar-23 15:31N 49°11' W 123°53'1 0.7
2015-Mar-23 14:32N 49°11' W 123°52'0 0.3
2015-Mar-23 13:33N 49°11' W 123°52'0 0.3
2015-Mar-23 12:33N 49°11' W 123°52'1 0.2
2015-Mar-23 09:33N 49°11' W 123°52'0 0.0
2015-Mar-23 08:20N 49°11' W 123°52'2 0.9
2015-Mar-23 05:34N 49°10' W 123°55'2 2.3
2015-Mar-23 04:31N 49°11' W 123°52'2 1.9
2015-Mar-23 03:33N 49°10' W 123°54'1 0.6
2015-Mar-23 02:32N 49°11' W 123°53'1 0.6
2015-Mar-23 01:28N 49°11' W 123°52'0 0.4
2015-Mar-23 00:21N 49°11' W 123°52'1 1.2
2015-Mar-22 23:33N 49°10' W 123°53'2 1.7
2015-Mar-22 22:31N 49°10' W 123°56'3 2.2
2015-Mar-22 21:10N 49°11' W 123°52'2 3.3
2015-Mar-22 20:33N 49°10' W 123°55'  

Dump ship's entire track history